Terminal Aerodrome Forecast
Issued by NWS

Home | Current Version | Previous Version | Text Only | Print | Product List | Glossary On
Versions: 1 2 3 4 5 6 7 8 9 10 11 12 13 14 15 16 17 18 19 20 21 22 23 24
000
FTUS43 KILX 201725
TAFDEC
TAF
KDEC 201725Z 2018/2118 21018G28KT P6SM SKC
     FM210200 20012G22KT P6SM FEW250 WS015/23050KT
     FM211500 22011G19KT P6SM BKN110
     FM211700 26012G20KT P6SM BKN090=

USA.gov is the U.S. government's official web portal to all federal, state and local government web resources and services.